sensor_id;sensor_type;location;lat;lon;timestamp;P1;durP1;ratioP1;P2;durP2;ratioP2
21258;SDS011;10787;53.364;-1.480;2022-10-29T00:02:20;13.27;;;5.27;;
21258;SDS011;10787;53.364;-1.480;2022-10-29T00:04:46;12.93;;;5.30;;
21258;SDS011;10787;53.364;-1.480;2022-10-29T00:07:12;14.17;;;5.10;;
21258;SDS011;10787;53.364;-1.480;2022-10-29T00:09:37;20.93;;;5.20;;
21258;SDS011;10787;53.364;-1.480;2022-10-29T00:12:03;15.20;;;5.50;;
21258;SDS011;10787;53.364;-1.480;2022-10-29T00:14:29;17.40;;;5.67;;
21258;SDS011;10787;53.364;-1.480;2022-10-29T00:16:55;17.63;;;5.33;;
21258;SDS011;10787;53.364;-1.480;2022-10-29T00:19:21;18.27;;;5.00;;
21258;SDS011;10787;53.364;-1.480;2022-10-29T00:21:49;14.40;;;5.60;;
21258;SDS011;10787;53.364;-1.480;2022-10-29T00:24:15;15.67;;;4.90;;
21258;SDS011;10787;53.364;-1.480;2022-10-29T00:26:41;14.40;;;5.30;;
21258;SDS011;10787;53.364;-1.480;2022-10-29T00:29:07;14.53;;;5.20;;
21258;SDS011;10787;53.364;-1.480;2022-10-29T00:31:32;11.40;;;5.17;;
21258;SDS011;10787;53.364;-1.480;2022-10-29T00:33:58;12.73;;;5.03;;
21258;SDS011;10787;53.364;-1.480;2022-10-29T00:36:25;14.43;;;4.93;;
21258;SDS011;10787;53.364;-1.480;2022-10-29T00:38:52;17.23;;;5.70;;
21258;SDS011;10787;53.364;-1.480;2022-10-29T00:41:20;16.03;;;5.40;;
21258;SDS011;10787;53.364;-1.480;2022-10-29T00:46:47;16.53;;;5.67;;
21258;SDS011;10787;53.364;-1.480;2022-10-29T00:49:16;16.60;;;5.77;;
21258;SDS011;10787;53.364;-1.480;2022-10-29T00:51:44;15.83;;;5.47;;
21258;SDS011;10787;53.364;-1.480;2022-10-29T00:54:12;13.93;;;5.50;;
21258;SDS011;10787;53.364;-1.480;2022-10-29T00:56:46;15.43;;;5.70;;
21258;SDS011;10787;53.364;-1.480;2022-10-29T00:59:16;18.00;;;6.07;;
21258;SDS011;10787;53.364;-1.480;2022-10-29T01:01:43;32.03;;;16.20;;
21258;SDS011;10787;53.364;-1.480;2022-10-29T01:04:10;22.67;;;9.87;;
21258;SDS011;10787;53.364;-1.480;2022-10-29T01:06:37;21.23;;;7.57;;
21258;SDS011;10787;53.364;-1.480;2022-10-29T01:09:04;17.03;;;7.10;;
21258;SDS011;10787;53.364;-1.480;2022-10-29T01:25:35;16.93;;;7.07;;
21258;SDS011;10787;53.364;-1.480;2022-10-29T01:31:12;19.33;;;7.43;;
21258;SDS011;10787;53.364;-1.480;2022-10-29T01:33:54;19.73;;;7.53;;
21258;SDS011;10787;53.364;-1.480;2022-10-29T01:36:26;17.17;;;7.30;;
21258;SDS011;10787;53.364;-1.480;2022-10-29T01:39:13;21.10;;;7.83;;
21258;SDS011;10787;53.364;-1.480;2022-10-29T01:44:36;23.43;;;8.10;;
21258;SDS011;10787;53.364;-1.480;2022-10-29T01:47:12;19.23;;;8.17;;
21258;SDS011;10787;53.364;-1.480;2022-10-29T01:49:44;17.60;;;8.07;;
21258;SDS011;10787;53.364;-1.480;2022-10-29T01:52:15;21.60;;;8.03;;
21258;SDS011;10787;53.364;-1.480;2022-10-29T01:54:45;23.03;;;8.10;;
21258;SDS011;10787;53.364;-1.480;2022-10-29T02:00:08;19.57;;;7.33;;
21258;SDS011;10787;53.364;-1.480;2022-10-29T02:05:38;20.30;;;7.97;;
21258;SDS011;10787;53.364;-1.480;2022-10-29T02:09:14;19.60;;;7.60;;
21258;SDS011;10787;53.364;-1.480;2022-10-29T02:11:41;18.50;;;7.87;;
21258;SDS011;10787;53.364;-1.480;2022-10-29T02:17:13;18.47;;;8.00;;
21258;SDS011;10787;53.364;-1.480;2022-10-29T02:19:38;19.33;;;7.97;;
21258;SDS011;10787;53.364;-1.480;2022-10-29T02:22:04;21.63;;;7.93;;
21258;SDS011;10787;53.364;-1.480;2022-10-29T02:24:30;22.60;;;8.17;;
21258;SDS011;10787;53.364;-1.480;2022-10-29T02:26:56;22.30;;;8.67;;
21258;SDS011;10787;53.364;-1.480;2022-10-29T02:29:21;19.40;;;8.27;;
21258;SDS011;10787;53.364;-1.480;2022-10-29T02:31:47;21.70;;;7.83;;
21258;SDS011;10787;53.364;-1.480;2022-10-29T02:34:14;22.07;;;8.13;;
21258;SDS011;10787;53.364;-1.480;2022-10-29T02:36:40;19.00;;;8.60;;
21258;SDS011;10787;53.364;-1.480;2022-10-29T02:39:05;21.87;;;9.30;;
21258;SDS011;10787;53.364;-1.480;2022-10-29T02:41:31;21.43;;;8.70;;
21258;SDS011;10787;53.364;-1.480;2022-10-29T02:43:57;24.13;;;9.40;;
21258;SDS011;10787;53.364;-1.480;2022-10-29T02:46:23;21.90;;;9.50;;
21258;SDS011;10787;53.364;-1.480;2022-10-29T02:48:50;20.27;;;9.13;;
21258;SDS011;10787;53.364;-1.480;2022-10-29T02:51:16;20.80;;;9.53;;
21258;SDS011;10787;53.364;-1.480;2022-10-29T02:53:42;18.77;;;9.20;;
21258;SDS011;10787;53.364;-1.480;2022-10-29T02:56:09;28.13;;;9.70;;
21258;SDS011;10787;53.364;-1.480;2022-10-29T02:58:36;18.07;;;8.90;;
21258;SDS011;10787;53.364;-1.480;2022-10-29T03:01:03;19.77;;;8.90;;
21258;SDS011;10787;53.364;-1.480;2022-10-29T03:03:31;21.47;;;9.27;;
21258;SDS011;10787;53.364;-1.480;2022-10-29T03:05:57;21.67;;;8.80;;
21258;SDS011;10787;53.364;-1.480;2022-10-29T03:08:22;23.47;;;8.90;;
21258;SDS011;10787;53.364;-1.480;2022-10-29T03:10:48;22.63;;;8.70;;
21258;SDS011;10787;53.364;-1.480;2022-10-29T03:13:14;27.23;;;9.63;;
21258;SDS011;10787;53.364;-1.480;2022-10-29T03:15:42;18.77;;;8.50;;
21258;SDS011;10787;53.364;-1.480;2022-10-29T03:18:09;23.03;;;9.47;;
21258;SDS011;10787;53.364;-1.480;2022-10-29T03:20:36;16.60;;;8.77;;
21258;SDS011;10787;53.364;-1.480;2022-10-29T03:23:01;18.50;;;8.47;;
21258;SDS011;10787;53.364;-1.480;2022-10-29T03:25:27;23.43;;;8.87;;
21258;SDS011;10787;53.364;-1.480;2022-10-29T03:27:53;26.63;;;8.87;;
21258;SDS011;10787;53.364;-1.480;2022-10-29T03:30:19;18.53;;;8.80;;
21258;SDS011;10787;53.364;-1.480;2022-10-29T03:32:45;17.03;;;8.47;;
21258;SDS011;10787;53.364;-1.480;2022-10-29T03:35:12;19.80;;;8.60;;
21258;SDS011;10787;53.364;-1.480;2022-10-29T03:37:39;18.57;;;8.23;;
21258;SDS011;10787;53.364;-1.480;2022-10-29T03:40:05;21.33;;;8.40;;
21258;SDS011;10787;53.364;-1.480;2022-10-29T03:42:32;23.07;;;8.93;;
21258;SDS011;10787;53.364;-1.480;2022-10-29T03:45:01;24.60;;;8.63;;
21258;SDS011;10787;53.364;-1.480;2022-10-29T03:47:28;18.93;;;8.50;;
21258;SDS011;10787;53.364;-1.480;2022-10-29T03:49:54;18.10;;;8.73;;
21258;SDS011;10787;53.364;-1.480;2022-10-29T03:52:20;19.47;;;8.63;;
21258;SDS011;10787;53.364;-1.480;2022-10-29T03:54:46;16.13;;;8.50;;
21258;SDS011;10787;53.364;-1.480;2022-10-29T03:57:12;25.50;;;8.50;;
21258;SDS011;10787;53.364;-1.480;2022-10-29T03:59:38;20.80;;;8.20;;
21258;SDS011;10787;53.364;-1.480;2022-10-29T04:02:04;21.00;;;8.93;;
21258;SDS011;10787;53.364;-1.480;2022-10-29T04:04:30;19.10;;;8.80;;
21258;SDS011;10787;53.364;-1.480;2022-10-29T04:06:55;17.47;;;8.03;;
21258;SDS011;10787;53.364;-1.480;2022-10-29T04:09:21;24.30;;;9.07;;
21258;SDS011;10787;53.364;-1.480;2022-10-29T04:11:47;20.23;;;8.90;;
21258;SDS011;10787;53.364;-1.480;2022-10-29T04:14:13;20.00;;;8.80;;
21258;SDS011;10787;53.364;-1.480;2022-10-29T04:16:39;21.17;;;8.87;;
21258;SDS011;10787;53.364;-1.480;2022-10-29T04:19:05;18.57;;;8.50;;
21258;SDS011;10787;53.364;-1.480;2022-10-29T04:21:31;26.80;;;9.20;;
21258;SDS011;10787;53.364;-1.480;2022-10-29T04:23:57;19.97;;;9.10;;
21258;SDS011;10787;53.364;-1.480;2022-10-29T04:26:23;21.13;;;8.93;;
21258;SDS011;10787;53.364;-1.480;2022-10-29T04:28:49;20.10;;;9.40;;
21258;SDS011;10787;53.364;-1.480;2022-10-29T04:31:16;26.23;;;10.07;;
21258;SDS011;10787;53.364;-1.480;2022-10-29T04:33:43;24.43;;;9.70;;
21258;SDS011;10787;53.364;-1.480;2022-10-29T04:36:10;20.77;;;9.90;;
21258;SDS011;10787;53.364;-1.480;2022-10-29T04:38:36;25.70;;;9.87;;
21258;SDS011;10787;53.364;-1.480;2022-10-29T04:41:02;23.93;;;9.37;;
21258;SDS011;10787;53.364;-1.480;2022-10-29T04:43:28;21.03;;;8.80;;
21258;SDS011;10787;53.364;-1.480;2022-10-29T04:45:55;22.00;;;9.13;;
21258;SDS011;10787;53.364;-1.480;2022-10-29T04:48:23;20.93;;;8.60;;
21258;SDS011;10787;53.364;-1.480;2022-10-29T04:50:52;19.50;;;8.80;;
21258;SDS011;10787;53.364;-1.480;2022-10-29T04:53:18;21.83;;;8.97;;
21258;SDS011;10787;53.364;-1.480;2022-10-29T04:55:45;20.20;;;8.40;;
21258;SDS011;10787;53.364;-1.480;2022-10-29T04:58:16;20.87;;;8.20;;
21258;SDS011;10787;53.364;-1.480;2022-10-29T05:00:43;18.93;;;8.03;;
21258;SDS011;10787;53.364;-1.480;2022-10-29T05:03:11;22.10;;;8.80;;
21258;SDS011;10787;53.364;-1.480;2022-10-29T05:05:41;19.90;;;8.07;;
21258;SDS011;10787;53.364;-1.480;2022-10-29T05:08:11;23.07;;;8.50;;
21258;SDS011;10787;53.364;-1.480;2022-10-29T05:10:38;21.70;;;8.50;;
21258;SDS011;10787;53.364;-1.480;2022-10-29T05:13:11;16.77;;;8.27;;
21258;SDS011;10787;53.364;-1.480;2022-10-29T05:15:39;26.97;;;8.30;;
21258;SDS011;10787;53.364;-1.480;2022-10-29T05:18:12;22.97;;;8.27;;
21258;SDS011;10787;53.364;-1.480;2022-10-29T05:20:42;19.50;;;8.80;;
21258;SDS011;10787;53.364;-1.480;2022-10-29T05:23:11;23.23;;;9.13;;
21258;SDS011;10787;53.364;-1.480;2022-10-29T05:25:40;25.67;;;9.10;;
21258;SDS011;10787;53.364;-1.480;2022-10-29T05:28:19;23.43;;;9.23;;
21258;SDS011;10787;53.364;-1.480;2022-10-29T05:30:47;27.90;;;9.70;;
21258;SDS011;10787;53.364;-1.480;2022-10-29T05:33:16;20.40;;;10.00;;
21258;SDS011;10787;53.364;-1.480;2022-10-29T05:35:43;18.60;;;8.70;;
21258;SDS011;10787;53.364;-1.480;2022-10-29T05:38:10;17.80;;;8.70;;
21258;SDS011;10787;53.364;-1.480;2022-10-29T05:40:37;20.93;;;8.57;;
21258;SDS011;10787;53.364;-1.480;2022-10-29T05:43:03;23.77;;;8.73;;
21258;SDS011;10787;53.364;-1.480;2022-10-29T05:45:29;22.90;;;8.93;;
21258;SDS011;10787;53.364;-1.480;2022-10-29T05:48:00;21.97;;;9.63;;
21258;SDS011;10787;53.364;-1.480;2022-10-29T05:50:27;21.90;;;9.37;;
21258;SDS011;10787;53.364;-1.480;2022-10-29T05:52:57;24.40;;;8.13;;
21258;SDS011;10787;53.364;-1.480;2022-10-29T05:55:24;20.03;;;7.47;;
21258;SDS011;10787;53.364;-1.480;2022-10-29T05:57:54;18.90;;;6.90;;
21258;SDS011;10787;53.364;-1.480;2022-10-29T06:00:21;17.37;;;6.80;;
21258;SDS011;10787;53.364;-1.480;2022-10-29T06:02:47;19.03;;;6.73;;
21258;SDS011;10787;53.364;-1.480;2022-10-29T06:05:13;24.20;;;6.70;;
21258;SDS011;10787;53.364;-1.480;2022-10-29T06:07:39;17.47;;;6.20;;
21258;SDS011;10787;53.364;-1.480;2022-10-29T06:10:04;16.07;;;6.10;;
21258;SDS011;10787;53.364;-1.480;2022-10-29T06:12:31;17.17;;;5.97;;
21258;SDS011;10787;53.364;-1.480;2022-10-29T06:14:58;13.33;;;5.77;;
21258;SDS011;10787;53.364;-1.480;2022-10-29T06:17:24;20.83;;;6.17;;
21258;SDS011;10787;53.364;-1.480;2022-10-29T06:19:50;16.53;;;6.03;;
21258;SDS011;10787;53.364;-1.480;2022-10-29T06:22:17;17.43;;;6.47;;
21258;SDS011;10787;53.364;-1.480;2022-10-29T06:24:43;16.53;;;6.33;;
21258;SDS011;10787;53.364;-1.480;2022-10-29T06:27:09;22.37;;;6.87;;
21258;SDS011;10787;53.364;-1.480;2022-10-29T06:29:34;15.97;;;6.80;;
21258;SDS011;10787;53.364;-1.480;2022-10-29T06:32:01;17.90;;;6.83;;
21258;SDS011;10787;53.364;-1.480;2022-10-29T06:34:28;16.47;;;6.83;;
21258;SDS011;10787;53.364;-1.480;2022-10-29T06:36:54;22.13;;;7.27;;
21258;SDS011;10787;53.364;-1.480;2022-10-29T06:39:20;18.70;;;7.13;;
21258;SDS011;10787;53.364;-1.480;2022-10-29T06:41:45;18.07;;;7.10;;
21258;SDS011;10787;53.364;-1.480;2022-10-29T06:44:11;23.60;;;7.50;;
21258;SDS011;10787;53.364;-1.480;2022-10-29T06:46:37;21.83;;;7.57;;
21258;SDS011;10787;53.364;-1.480;2022-10-29T06:49:06;23.63;;;7.77;;
21258;SDS011;10787;53.364;-1.480;2022-10-29T06:51:31;22.00;;;9.35;;
21258;SDS011;10787;53.364;-1.480;2022-10-29T06:53:57;22.60;;;9.13;;
21258;SDS011;10787;53.364;-1.480;2022-10-29T06:56:23;21.07;;;9.10;;
21258;SDS011;10787;53.364;-1.480;2022-10-29T06:58:48;18.77;;;9.40;;
21258;SDS011;10787;53.364;-1.480;2022-10-29T07:01:14;22.48;;;10.20;;
21258;SDS011;10787;53.364;-1.480;2022-10-29T07:03:40;19.23;;;9.20;;
21258;SDS011;10787;53.364;-1.480;2022-10-29T07:06:07;19.30;;;10.20;;
21258;SDS011;10787;53.364;-1.480;2022-10-29T07:08:33;16.92;;;10.02;;
21258;SDS011;10787;53.364;-1.480;2022-10-29T07:10:58;18.60;;;9.67;;
21258;SDS011;10787;53.364;-1.480;2022-10-29T07:13:26;20.20;;;9.60;;
21258;SDS011;10787;53.364;-1.480;2022-10-29T07:15:52;21.77;;;10.10;;
21258;SDS011;10787;53.364;-1.480;2022-10-29T07:18:21;18.83;;;10.07;;
21258;SDS011;10787;53.364;-1.480;2022-10-29T07:20:47;16.40;;;9.93;;
21258;SDS011;10787;53.364;-1.480;2022-10-29T07:23:13;17.00;;;10.40;;
21258;SDS011;10787;53.364;-1.480;2022-10-29T07:25:40;18.30;;;10.73;;
21258;SDS011;10787;53.364;-1.480;2022-10-29T07:28:13;19.10;;;11.10;;
21258;SDS011;10787;53.364;-1.480;2022-10-29T07:30:41;26.37;;;13.87;;
21258;SDS011;10787;53.364;-1.480;2022-10-29T07:33:08;26.37;;;14.57;;
21258;SDS011;10787;53.364;-1.480;2022-10-29T07:35:34;19.83;;;11.10;;
21258;SDS011;10787;53.364;-1.480;2022-10-29T07:38:01;17.83;;;11.13;;
21258;SDS011;10787;53.364;-1.480;2022-10-29T07:40:27;19.33;;;11.27;;
21258;SDS011;10787;53.364;-1.480;2022-10-29T07:42:54;19.00;;;10.30;;
21258;SDS011;10787;53.364;-1.480;2022-10-29T07:45:20;19.57;;;10.70;;
21258;SDS011;10787;53.364;-1.480;2022-10-29T07:47:46;19.53;;;10.50;;
21258;SDS011;10787;53.364;-1.480;2022-10-29T07:50:12;19.23;;;10.73;;
21258;SDS011;10787;53.364;-1.480;2022-10-29T07:52:39;18.07;;;10.63;;
21258;SDS011;10787;53.364;-1.480;2022-10-29T07:55:06;16.93;;;10.50;;
21258;SDS011;10787;53.364;-1.480;2022-10-29T07:57:32;15.97;;;10.83;;
21258;SDS011;10787;53.364;-1.480;2022-10-29T07:59:58;26.77;;;13.07;;
21258;SDS011;10787;53.364;-1.480;2022-10-29T08:02:24;22.63;;;11.70;;
21258;SDS011;10787;53.364;-1.480;2022-10-29T08:04:50;18.00;;;11.43;;
21258;SDS011;10787;53.364;-1.480;2022-10-29T08:07:15;18.57;;;11.37;;
21258;SDS011;10787;53.364;-1.480;2022-10-29T08:09:41;23.57;;;13.17;;
21258;SDS011;10787;53.364;-1.480;2022-10-29T08:12:08;29.77;;;16.67;;
21258;SDS011;10787;53.364;-1.480;2022-10-29T08:14:35;20.07;;;13.40;;
21258;SDS011;10787;53.364;-1.480;2022-10-29T08:17:00;19.57;;;12.93;;
21258;SDS011;10787;53.364;-1.480;2022-10-29T08:19:26;17.10;;;11.60;;
21258;SDS011;10787;53.364;-1.480;2022-10-29T08:21:54;16.33;;;10.83;;
21258;SDS011;10787;53.364;-1.480;2022-10-29T08:24:20;13.47;;;10.63;;
21258;SDS011;10787;53.364;-1.480;2022-10-29T08:26:46;17.57;;;10.47;;
21258;SDS011;10787;53.364;-1.480;2022-10-29T08:29:15;14.17;;;10.23;;
21258;SDS011;10787;53.364;-1.480;2022-10-29T08:31:40;15.17;;;9.90;;
21258;SDS011;10787;53.364;-1.480;2022-10-29T08:34:06;14.23;;;9.70;;
21258;SDS011;10787;53.364;-1.480;2022-10-29T08:36:32;10.77;;;8.67;;
21258;SDS011;10787;53.364;-1.480;2022-10-29T08:38:58;13.07;;;8.47;;
21258;SDS011;10787;53.364;-1.480;2022-10-29T08:47:08;10.20;;;7.67;;
21258;SDS011;10787;53.364;-1.480;2022-10-29T08:52:29;11.33;;;7.97;;
21258;SDS011;10787;53.364;-1.480;2022-10-29T08:55:19;9.53;;;8.50;;
21258;SDS011;10787;53.364;-1.480;2022-10-29T08:57:49;9.73;;;7.33;;
21258;SDS011;10787;53.364;-1.480;2022-10-29T09:00:22;11.40;;;8.07;;
21258;SDS011;10787;53.364;-1.480;2022-10-29T09:02:54;13.40;;;9.07;;
21258;SDS011;10787;53.364;-1.480;2022-10-29T09:05:23;12.93;;;9.00;;
21258;SDS011;10787;53.364;-1.480;2022-10-29T09:10:56;12.93;;;9.37;;
21258;SDS011;10787;53.364;-1.480;2022-10-29T09:13:37;12.20;;;9.00;;
21258;SDS011;10787;53.364;-1.480;2022-10-29T09:16:20;13.33;;;9.17;;
21258;SDS011;10787;53.364;-1.480;2022-10-29T09:18:56;12.73;;;8.70;;
21258;SDS011;10787;53.364;-1.480;2022-10-29T09:27:14;11.07;;;9.07;;
21258;SDS011;10787;53.364;-1.480;2022-10-29T09:29:51;11.93;;;9.27;;
21258;SDS011;10787;53.364;-1.480;2022-10-29T09:32:32;10.83;;;8.80;;
21258;SDS011;10787;53.364;-1.480;2022-10-29T09:35:06;12.13;;;9.83;;
21258;SDS011;10787;53.364;-1.480;2022-10-29T09:37:41;12.90;;;9.50;;
21258;SDS011;10787;53.364;-1.480;2022-10-29T09:40:16;12.63;;;10.17;;
21258;SDS011;10787;53.364;-1.480;2022-10-29T09:42:49;13.17;;;10.87;;
21258;SDS011;10787;53.364;-1.480;2022-10-29T09:45:16;15.00;;;11.90;;
21258;SDS011;10787;53.364;-1.480;2022-10-29T09:53:29;20.30;;;14.73;;
21258;SDS011;10787;53.364;-1.480;2022-10-29T09:55:55;21.83;;;15.57;;
21258;SDS011;10787;53.364;-1.480;2022-10-29T09:58:22;20.65;;;15.35;;
21258;SDS011;10787;53.364;-1.480;2022-10-29T10:00:50;31.33;;;17.13;;
21258;SDS011;10787;53.364;-1.480;2022-10-29T10:03:22;31.00;;;16.67;;
21258;SDS011;10787;53.364;-1.480;2022-10-29T10:06:06;34.72;;;16.65;;
21258;SDS011;10787;53.364;-1.480;2022-10-29T10:08:33;31.10;;;17.50;;
21258;SDS011;10787;53.364;-1.480;2022-10-29T10:11:19;25.60;;;17.43;;
21258;SDS011;10787;53.364;-1.480;2022-10-29T10:13:57;24.95;;;16.98;;
21258;SDS011;10787;53.364;-1.480;2022-10-29T10:16:27;25.77;;;17.45;;
21258;SDS011;10787;53.364;-1.480;2022-10-29T10:18:56;25.97;;;17.60;;
21258;SDS011;10787;53.364;-1.480;2022-10-29T10:21:24;24.15;;;17.00;;
21258;SDS011;10787;53.364;-1.480;2022-10-29T10:23:52;22.73;;;16.07;;
21258;SDS011;10787;53.364;-1.480;2022-10-29T10:26:36;25.13;;;16.38;;
21258;SDS011;10787;53.364;-1.480;2022-10-29T10:37:09;47.37;;;19.33;;
21258;SDS011;10787;53.364;-1.480;2022-10-29T10:42:26;24.23;;;16.48;;
21258;SDS011;10787;53.364;-1.480;2022-10-29T10:45:02;21.23;;;14.95;;
21258;SDS011;10787;53.364;-1.480;2022-10-29T10:47:39;21.83;;;14.70;;
21258;SDS011;10787;53.364;-1.480;2022-10-29T10:52:56;22.83;;;14.55;;
21258;SDS011;10787;53.364;-1.480;2022-10-29T10:55:25;23.52;;;14.93;;
21258;SDS011;10787;53.364;-1.480;2022-10-29T10:58:39;24.65;;;14.48;;
21258;SDS011;10787;53.364;-1.480;2022-10-29T11:00:48;23.23;;;14.23;;
21258;SDS011;10787;53.364;-1.480;2022-10-29T11:03:26;23.77;;;14.57;;
21258;SDS011;10787;53.364;-1.480;2022-10-29T11:06:18;19.45;;;13.88;;
21258;SDS011;10787;53.364;-1.480;2022-10-29T11:09:19;18.98;;;13.80;;
21258;SDS011;10787;53.364;-1.480;2022-10-29T11:11:58;20.60;;;14.13;;
21258;SDS011;10787;53.364;-1.480;2022-10-29T11:17:58;21.88;;;13.50;;
21258;SDS011;10787;53.364;-1.480;2022-10-29T11:20:25;22.48;;;14.15;;
21258;SDS011;10787;53.364;-1.480;2022-10-29T11:25:47;23.55;;;14.63;;
21258;SDS011;10787;53.364;-1.480;2022-10-29T11:30:59;24.58;;;14.15;;
21258;SDS011;10787;53.364;-1.480;2022-10-29T11:36:02;22.50;;;14.57;;
21258;SDS011;10787;53.364;-1.480;2022-10-29T11:38:41;22.05;;;14.48;;
21258;SDS011;10787;53.364;-1.480;2022-10-29T11:43:58;26.00;;;15.02;;
21258;SDS011;10787;53.364;-1.480;2022-10-29T11:46:36;23.45;;;15.82;;
21258;SDS011;10787;53.364;-1.480;2022-10-29T11:52:21;21.92;;;15.52;;
21258;SDS011;10787;53.364;-1.480;2022-10-29T12:00:14;34.45;;;16.52;;
21258;SDS011;10787;53.364;-1.480;2022-10-29T12:05:32;27.48;;;16.27;;
21258;SDS011;10787;53.364;-1.480;2022-10-29T12:10:56;31.02;;;17.33;;
21258;SDS011;10787;53.364;-1.480;2022-10-29T12:16:35;30.45;;;17.95;;
21258;SDS011;10787;53.364;-1.480;2022-10-29T12:25:02;35.92;;;21.63;;
21258;SDS011;10787;53.364;-1.480;2022-10-29T12:27:37;60.85;;;25.10;;
21258;SDS011;10787;53.364;-1.480;2022-10-29T12:30:06;53.15;;;24.60;;
21258;SDS011;10787;53.364;-1.480;2022-10-29T12:32:37;46.63;;;24.73;;
21258;SDS011;10787;53.364;-1.480;2022-10-29T12:35:13;63.88;;;24.80;;
21258;SDS011;10787;53.364;-1.480;2022-10-29T12:40:32;37.47;;;21.30;;
21258;SDS011;10787;53.364;-1.480;2022-10-29T12:43:06;44.33;;;24.13;;
21258;SDS011;10787;53.364;-1.480;2022-10-29T12:45:45;43.30;;;22.05;;
21258;SDS011;10787;53.364;-1.480;2022-10-29T12:48:34;38.75;;;22.15;;
21258;SDS011;10787;53.364;-1.480;2022-10-29T12:51:22;37.90;;;22.63;;
21258;SDS011;10787;53.364;-1.480;2022-10-29T12:56:33;46.70;;;25.05;;
21258;SDS011;10787;53.364;-1.480;2022-10-29T12:59:33;40.97;;;22.50;;
21258;SDS011;10787;53.364;-1.480;2022-10-29T13:01:54;34.92;;;20.65;;
21258;SDS011;10787;53.364;-1.480;2022-10-29T13:04:27;40.45;;;21.30;;
21258;SDS011;10787;53.364;-1.480;2022-10-29T13:06:55;34.10;;;20.50;;
21258;SDS011;10787;53.364;-1.480;2022-10-29T13:09:40;44.13;;;21.77;;
21258;SDS011;10787;53.364;-1.480;2022-10-29T13:12:09;41.60;;;20.67;;
21258;SDS011;10787;53.364;-1.480;2022-10-29T13:14:59;34.90;;;18.58;;
21258;SDS011;10787;53.364;-1.480;2022-10-29T13:19:58;40.78;;;22.60;;
21258;SDS011;10787;53.364;-1.480;2022-10-29T13:22:49;37.25;;;20.70;;
21258;SDS011;10787;53.364;-1.480;2022-10-29T13:30:36;40.38;;;21.52;;
21258;SDS011;10787;53.364;-1.480;2022-10-29T13:35:57;44.30;;;21.80;;
21258;SDS011;10787;53.364;-1.480;2022-10-29T13:43:40;45.53;;;21.23;;
21258;SDS011;10787;53.364;-1.480;2022-10-29T13:48:53;29.13;;;19.27;;
21258;SDS011;10787;53.364;-1.480;2022-10-29T13:51:27;31.98;;;19.48;;
21258;SDS011;10787;53.364;-1.480;2022-10-29T13:55:03;32.45;;;19.77;;
21258;SDS011;10787;53.364;-1.480;2022-10-29T14:00:04;35.85;;;22.52;;
21258;SDS011;10787;53.364;-1.480;2022-10-29T14:05:37;37.70;;;22.05;;
21258;SDS011;10787;53.364;-1.480;2022-10-29T14:10:57;40.80;;;23.02;;
21258;SDS011;10787;53.364;-1.480;2022-10-29T14:18:26;49.83;;;27.67;;
21258;SDS011;10787;53.364;-1.480;2022-10-29T14:21:02;52.35;;;28.17;;
21258;SDS011;10787;53.364;-1.480;2022-10-29T14:23:30;49.45;;;28.73;;
21258;SDS011;10787;53.364;-1.480;2022-10-29T14:25:58;54.22;;;29.52;;
21258;SDS011;10787;53.364;-1.480;2022-10-29T14:28:30;63.10;;;29.42;;
21258;SDS011;10787;53.364;-1.480;2022-10-29T14:31:00;59.60;;;30.77;;
21258;SDS011;10787;53.364;-1.480;2022-10-29T14:36:02;63.58;;;36.65;;
21258;SDS011;10787;53.364;-1.480;2022-10-29T14:41:20;60.88;;;31.65;;
21258;SDS011;10787;53.364;-1.480;2022-10-29T14:46:36;58.80;;;32.55;;
21258;SDS011;10787;53.364;-1.480;2022-10-29T14:54:49;68.95;;;38.55;;
21258;SDS011;10787;53.364;-1.480;2022-10-29T14:57:16;62.15;;;36.28;;
21258;SDS011;10787;53.364;-1.480;2022-10-29T14:59:54;63.38;;;36.95;;
21258;SDS011;10787;53.364;-1.480;2022-10-29T15:02:23;66.45;;;36.38;;
21258;SDS011;10787;53.364;-1.480;2022-10-29T15:05:00;68.38;;;35.83;;
21258;SDS011;10787;53.364;-1.480;2022-10-29T15:07:31;105.68;;;48.20;;
21258;SDS011;10787;53.364;-1.480;2022-10-29T15:10:42;82.50;;;38.72;;
21258;SDS011;10787;53.364;-1.480;2022-10-29T15:12:49;81.60;;;38.35;;
21258;SDS011;10787;53.364;-1.480;2022-10-29T15:23:11;80.25;;;44.28;;
21258;SDS011;10787;53.364;-1.480;2022-10-29T15:25:43;74.65;;;41.58;;
21258;SDS011;10787;53.364;-1.480;2022-10-29T15:28:22;100.47;;;45.80;;
21258;SDS011;10787;53.364;-1.480;2022-10-29T15:30:50;97.20;;;46.75;;
21258;SDS011;10787;53.364;-1.480;2022-10-29T15:33:20;106.60;;;45.30;;
21258;SDS011;10787;53.364;-1.480;2022-10-29T15:35:55;100.28;;;43.22;;
21258;SDS011;10787;53.364;-1.480;2022-10-29T15:43:33;78.57;;;42.97;;
21258;SDS011;10787;53.364;-1.480;2022-10-29T15:46:11;73.50;;;39.95;;
21258;SDS011;10787;53.364;-1.480;2022-10-29T15:48:49;80.35;;;40.58;;
21258;SDS011;10787;53.364;-1.480;2022-10-29T15:51:16;75.15;;;40.22;;
21258;SDS011;10787;53.364;-1.480;2022-10-29T15:53:43;76.25;;;42.67;;
21258;SDS011;10787;53.364;-1.480;2022-10-29T15:56:11;77.10;;;42.47;;
21258;SDS011;10787;53.364;-1.480;2022-10-29T15:58:41;71.05;;;40.92;;
21258;SDS011;10787;53.364;-1.480;2022-10-29T16:01:07;72.45;;;38.80;;
21258;SDS011;10787;53.364;-1.480;2022-10-29T16:03:34;73.60;;;40.30;;
21258;SDS011;10787;53.364;-1.480;2022-10-29T16:06:03;76.65;;;41.40;;
21258;SDS011;10787;53.364;-1.480;2022-10-29T16:11:04;89.57;;;47.75;;
21258;SDS011;10787;53.364;-1.480;2022-10-29T16:13:32;91.35;;;49.05;;
21258;SDS011;10787;53.364;-1.480;2022-10-29T16:15:58;90.47;;;49.92;;
21258;SDS011;10787;53.364;-1.480;2022-10-29T16:18:25;78.35;;;44.55;;
21258;SDS011;10787;53.364;-1.480;2022-10-29T16:20:56;74.32;;;43.88;;
21258;SDS011;10787;53.364;-1.480;2022-10-29T16:23:25;80.60;;;45.00;;
21258;SDS011;10787;53.364;-1.480;2022-10-29T16:25:51;89.32;;;47.00;;
21258;SDS011;10787;53.364;-1.480;2022-10-29T16:28:17;86.80;;;47.58;;
21258;SDS011;10787;53.364;-1.480;2022-10-29T16:30:44;85.43;;;48.42;;
21258;SDS011;10787;53.364;-1.480;2022-10-29T16:33:17;86.57;;;47.47;;
21258;SDS011;10787;53.364;-1.480;2022-10-29T16:35:44;77.65;;;46.00;;
21258;SDS011;10787;53.364;-1.480;2022-10-29T16:38:09;85.50;;;48.90;;
21258;SDS011;10787;53.364;-1.480;2022-10-29T16:40:36;97.28;;;51.10;;
21258;SDS011;10787;53.364;-1.480;2022-10-29T16:43:02;196.70;;;60.83;;
21258;SDS011;10787;53.364;-1.480;2022-10-29T16:45:29;97.00;;;56.30;;
21258;SDS011;10787;53.364;-1.480;2022-10-29T16:47:56;93.68;;;55.25;;
21258;SDS011;10787;53.364;-1.480;2022-10-29T16:50:23;139.23;;;61.35;;
21258;SDS011;10787;53.364;-1.480;2022-10-29T16:52:58;104.03;;;60.03;;
21258;SDS011;10787;53.364;-1.480;2022-10-29T16:55:27;112.82;;;64.65;;
21258;SDS011;10787;53.364;-1.480;2022-10-29T16:57:53;141.15;;;64.82;;
21258;SDS011;10787;53.364;-1.480;2022-10-29T17:00:20;107.15;;;64.35;;
21258;SDS011;10787;53.364;-1.480;2022-10-29T17:02:46;117.30;;;71.82;;
21258;SDS011;10787;53.364;-1.480;2022-10-29T17:05:12;115.43;;;65.97;;
21258;SDS011;10787;53.364;-1.480;2022-10-29T17:07:39;121.32;;;70.68;;
21258;SDS011;10787;53.364;-1.480;2022-10-29T17:10:05;128.55;;;74.88;;
21258;SDS011;10787;53.364;-1.480;2022-10-29T17:12:32;125.03;;;73.75;;
21258;SDS011;10787;53.364;-1.480;2022-10-29T17:14:58;110.20;;;65.25;;
21258;SDS011;10787;53.364;-1.480;2022-10-29T17:17:24;104.53;;;64.28;;
21258;SDS011;10787;53.364;-1.480;2022-10-29T17:19:50;100.72;;;58.63;;
21258;SDS011;10787;53.364;-1.480;2022-10-29T17:22:17;95.13;;;55.88;;